Last 7 Days

Gordon Valley 3

Hourly Data | America/Los_Angeles
as of 11/27/20 12:39 PM PST
Date & Time Temp (°F) RH (%) Dew Pt (°F) Wind Spd (mph) Wind Dir (°) Wind Gust (mph) Latest Rain (In) Daily Rain (In) Daily Min Temp (°F) Daily Max Temp (°F)
11/27/20 - 1200 60.1 30 28.4 4.2 SW | 222 8.8 0.00 0.00 30.8 61.4
11/27/20 - 1100 57.6 33 28.4 2.9 SSW | 210 6.1 0.00 0.00 30.8 60.4
11/27/20 - 1000 53.7 40 29.7 3.2 SSW | 192 5.8 0.00 0.00 30.8 60.4
11/27/20 - 0900 45.6 57 30.9 0.8 ENE | 67 4.8 0.00 0.00 30.8 60.4
11/27/20 - 0800 32.5 85 28.5 0.9 NE | 46 3.4 0.00 0.00 30.8 60.4
11/27/20 - 0700 31.5 86 27.8 1.4 NE | 34 4.1 0.00 0.00 30.8 60.4
11/27/20 - 0600 32.8 83 28.2 0.8 NE | 38 3.4 0.00 0.00 31.4 60.4
11/27/20 - 0500 35.6 76 28.8 0.9 NE | 37 3.1 0.00 0.00 33.8 60.4
11/27/20 - 0400 40.1 62 27.9 1.3 NNE | 23 5.1 0.00 0.00 36.9 60.4
11/27/20 - 0300 46.9 43 25.1 1.5 SSE | 160 4.4 0.00 0.00 42.4 60.4
11/27/20 - 0200 56.6 25 21.0 4.6 NNW | 347 12.8 0.00 0.00 53.6 60.4
11/27/20 - 0100 59.3 18 15.4 5.9 N | 351 14.2 0.00 0.00 57.7 60.4
11/27/20 - 0000 58.4 20 17.5 5.1 N | 357 14.2 0.00 0.00 50.7 64.1
11/26/20 - 2300 58.2 23 20.0 5.0 NNW | 339 14.8 0.00 0.00 50.7 64.1
11/26/20 - 2200 60.0 20 18.8 6.2 NNW | 327 18.8 0.00 0.00 50.7 64.1
11/26/20 - 2100 60.9 19 18.0 12.5 NNW | 332 26.6 0.00 0.00 50.7 64.1
11/26/20 - 2000 59.9 20 19.1 11.8 NNW | 330 22.5 0.00 0.00 50.7 64.1
11/26/20 - 1900 59.7 20 18.4 10.8 NNW | 334 23.2 0.00 0.00 50.7 64.1
11/26/20 - 1800 58.6 21 18.4 5.1 N | 7 15.2 0.00 0.00 50.7 64.1
11/26/20 - 1700 61.8 17 16.3 8.0 NNW | 345 15.5 0.00 0.00 50.7 64.1
11/26/20 - 1600 63.6 15 15.8 7.7 N | 360 23.9 0.00 0.00 50.7 64.1
11/26/20 - 1500 63.2 17 18.0 11.4 N | 357 21.5 0.00 0.00 50.7 63.8
11/26/20 - 1400 63.1 18 18.8 14.4 NNE | 16 27.6 0.00 0.00 50.7 63.8
11/26/20 - 1300 62.9 19 20.2 13.1 NNE | 21 26.2 0.00 0.00 50.7 63.6
11/26/20 - 1200 61.5 22 22.4 11.6 N | 351 22.9 0.00 0.00 50.7 62.8
11/26/20 - 1100 60.2 24 23.2 10.9 N | 353 22.2 0.00 0.00 50.7 61.7
11/26/20 - 1000 57.4 28 24.4 11.8 N | 353 24.9 0.00 0.00 50.7 59.0
11/26/20 - 0900 54.6 32 25.2 12.4 NNW | 342 23.2 0.00 0.00 50.7 55.9
11/26/20 - 0800 52.6 34 25.1 11.1 NNW | 340 22.5 0.00 0.00 50.7 55.1
11/26/20 - 0700 52.2 34 24.9 9.2 NNW | 345 18.5 0.00 0.00 50.7 55.1
11/26/20 - 0600 52.7 34 24.8 9.8 NNW | 348 18.8 0.00 0.00 50.7 55.1
11/26/20 - 0500 53.1 33 25.1 10.0 NNW | 348 21.2 0.00 0.00 50.7 55.1
11/26/20 - 0400 53.8 33 25.5 12.4 N | 350 22.5 0.00 0.00 50.7 55.1
11/26/20 - 0300 54.2 34 26.6 12.3 NNW | 344 22.5 0.00 0.00 50.7 55.1
11/26/20 - 0200 54.5 36 27.9 11.0 NNW | 341 21.5 0.00 0.00 50.7 55.1
11/26/20 - 0100 52.9 44 31.3 10.6 NNW | 342 20.9 0.00 0.00 50.7 54.8
11/26/20 - 0000 50.6 53 34.3 5.5 NNW | 344 13.2 0.00 0.01 36.0 64.6
11/25/20 - 2300 51.7 51 33.9 6.7 N | 350 13.8 0.00 0.01 36.0 64.6
11/25/20 - 2200 45.4 66 34.1 4.7 NNE | 17 15.8 0.01 0.01 36.0 64.6
11/25/20 - 2100 41.7 80 36.1 1.7 NE | 46 4.4 0.00 0.00 36.0 64.6
11/25/20 - 2000 41.7 82 36.6 1.6 NE | 47 5.1 0.00 0.00 36.0 64.6
11/25/20 - 1900 43.2 80 37.5 0.7 NE | 39 4.1 0.00 0.00 36.0 64.6
11/25/20 - 1800 48.7 64 36.9 0.9 NNE | 21 3.8 0.00 0.00 36.0 64.6
11/25/20 - 1700 58.8 42 36.0 1.8 SSE | 156 4.8 0.00 0.00 36.0 64.6
11/25/20 - 1600 61.0 45 39.4 3.8 SSE | 167 7.4 0.00 0.00 36.0 64.6
11/25/20 - 1500 62.6 42 39.1 4.6 S | 170 10.1 0.00 0.00 36.0 64.6
11/25/20 - 1400 63.5 40 38.9 3.8 S | 190 8.8 0.00 0.00 36.0 64.2
11/25/20 - 1300 62.6 46 41.7 5.2 S | 181 12.1 0.00 0.00 36.0 64.0
11/25/20 - 1200 61.3 48 41.4 5.5 SE | 140 12.1 0.00 0.00 36.0 62.5
11/25/20 - 1100 59.9 48 40.3 2.8 WNW | 302 7.4 0.00 0.00 36.0 61.3
11/25/20 - 1000 57.0 57 42.0 3.1 NW | 323 8.8 0.00 0.00 36.0 59.2
11/25/20 - 0900 53.9 67 43.2 3.4 NNW | 328 10.5 0.00 0.00 36.0 55.4
11/25/20 - 0800 49.0 80 43.2 1.9 NNE | 32 10.1 0.00 0.00 36.0 52.0
11/25/20 - 0700 49.9 80 43.9 6.4 N | 357 14.5 0.00 0.00 36.0 52.0
11/25/20 - 0600 50.4 77 43.5 6.0 NW | 322 12.8 0.00 0.00 36.0 52.0
11/25/20 - 0500 51.1 76 43.7 8.4 NW | 321 16.5 0.00 0.00 36.0 52.0
11/25/20 - 0400 39.0 100 38.9 1.8 NNE | 27 7.1 0.00 0.00 36.0 46.9
11/25/20 - 0300 37.6 100 37.6 1.3 NNW | 345 5.4 0.00 0.00 36.0 40.6
11/25/20 - 0200 39.0 99 38.9 1.1 WNW | 298 4.4 0.00 0.00 37.7 40.6
11/25/20 - 0100 39.0 99 38.8 1.6 E | 97 5.8 0.00 0.00 37.9 40.6
11/25/20 - 0000 38.8 99 38.4 1.6 NE | 35 4.8 0.00 0.01 34.5 69.9
11/24/20 - 2300 39.2 98 38.7 1.3 NNE | 32 4.1 0.00 0.01 34.5 69.9
11/24/20 - 2200 40.6 97 39.9 0.9 N | 10 3.4 0.00 0.01 34.5 69.9
11/24/20 - 2100 41.2 96 40.1 0.7 NNE | 33 2.7 0.00 0.01 34.5 69.9
11/24/20 - 2000 43.4 91 41.0 0.8 N | 353 3.4 0.00 0.01 34.5 69.9
11/24/20 - 1900 46.5 86 42.4 0.7 NNE | 19 3.1 0.00 0.01 34.5 69.9
11/24/20 - 1800 51.6 73 43.0 0.6 NNE | 13 3.4 0.00 0.01 34.5 69.9
11/24/20 - 1700 61.8 50 43.0 3.7 S | 177 8.8 0.00 0.01 34.5 69.9
11/24/20 - 1600 67.1 39 41.5 5.7 SW | 219 10.1 0.00 0.01 34.5 69.9
11/24/20 - 1500 69.1 34 39.8 3.5 SSW | 208 10.8 0.00 0.01 34.5 69.9
11/24/20 - 1400 67.5 37 40.1 3.3 SSE | 150 7.1 0.00 0.01 34.5 68.2
11/24/20 - 1300 65.9 38 39.8 3.5 SSE | 152 8.1 0.00 0.01 34.5 67.0
11/24/20 - 1200 64.3 44 41.7 2.9 S | 170 7.1 0.00 0.01 34.5 66.1
11/24/20 - 1100 61.1 52 43.1 2.4 S | 175 6.1 0.01 0.01 34.5 63.0
11/24/20 - 1000 57.7 60 43.9 1.1 SSW | 203 5.4 0.00 0.00 34.5 60.7
11/24/20 - 0900 47.5 81 41.7 0.7 E | 80 3.8 0.00 0.00 34.5 54.2
11/24/20 - 0800 35.9 99 35.6 0.6 NE | 39 3.4 0.00 0.00 34.5 41.7
11/24/20 - 0700 35.4 98 34.8 0.8 NNE | 21 3.1 0.00 0.00 34.6 41.7
11/24/20 - 0600 36.6 97 35.9 0.9 NNE | 28 4.1 0.00 0.00 36.0 41.7
11/24/20 - 0500 37.3 97 36.5 1.3 NNE | 30 4.4 0.00 0.00 36.3 41.7
11/24/20 - 0400 38.6 95 37.4 1.5 NNE | 23 4.1 0.00 0.00 37.5 41.7
11/24/20 - 0300 39.6 96 38.4 1.8 NE | 53 4.8 0.00 0.00 38.5 41.7
11/24/20 - 0200 39.5 97 38.8 1.1 NNE | 29 4.1 0.00 0.00 38.5 41.7
11/24/20 - 0100 40.2 96 39.0 0.8 NNE | 21 4.1 0.00 0.00 39.1 41.7
11/24/20 - 0000 42.5 93 40.6 1.3 NNE | 31 4.8 0.00 0.01 35.0 67.8
11/23/20 - 2300 44.2 90 41.5 1.2 NE | 44 4.1 0.00 0.01 35.0 67.8
11/23/20 - 2200 45.1 90 42.4 1.9 NE | 42 5.1 0.00 0.01 35.0 67.8
11/23/20 - 2100 45.6 91 43.1 2.3 NE | 53 5.4 0.00 0.01 35.0 67.8
11/23/20 - 2000 44.8 94 43.2 1.9 NE | 48 3.8 0.00 0.01 35.0 67.8
11/23/20 - 1900 46.4 90 43.7 0.7 NNE | 21 3.1 0.00 0.01 35.0 67.8
11/23/20 - 1800 51.0 79 44.7 0.4 NNE | 25 2.1 0.00 0.01 35.0 67.8
11/23/20 - 1700 60.4 58 45.3 3.5 WSW | 242 10.5 0.00 0.01 35.0 67.8
11/23/20 - 1600 65.6 46 44.1 5.7 SW | 227 11.1 0.00 0.01 35.0 67.8
11/23/20 - 1500 67.0 41 42.4 2.9 SW | 236 9.1 0.00 0.01 35.0 67.8
11/23/20 - 1400 65.7 44 43.1 4.5 S | 178 9.1 0.00 0.01 35.0 67.2
11/23/20 - 1300 64.9 45 42.9 3.6 S | 184 10.8 0.00 0.01 35.0 65.8
11/23/20 - 1200 62.9 47 42.6 3.0 S | 172 8.1 0.00 0.01 35.0 64.3
11/23/20 - 1100 60.1 54 43.4 2.1 SSE | 162 5.8 0.00 0.01 35.0 62.6
11/23/20 - 1000 55.2 69 45.1 0.7 SSW | 207 3.4 0.00 0.01 35.0 59.3
11/23/20 - 0900 46.8 96 45.6 0.4 N | 0 0.4 0.00 0.01 35.0 50.4
11/23/20 - 0800 37.8 100 37.8 0.5 NE | 42 2.7 0.01 0.01 35.0 42.8
11/23/20 - 0700 35.5 100 35.4 0.7 N | 11 2.4 0.00 0.00 35.2 42.8
11/23/20 - 0600 36.0 100 35.9 0.6 NE | 56 2.7 0.00 0.00 35.7 42.8
11/23/20 - 0500 36.7 99 36.5 0.7 NNE | 32 3.4 0.00 0.00 35.9 42.8
11/23/20 - 0400 37.8 98 37.4 0.9 NNE | 18 3.1 0.00 0.00 36.9 42.8
11/23/20 - 0300 38.7 98 38.2 1.0 NNE | 24 3.4 0.00 0.00 37.9 42.8
11/23/20 - 0200 40.5 96 39.5 1.2 NE | 42 4.1 0.00 0.00 39.3 42.8
11/23/20 - 0100 41.5 96 40.6 1.6 NE | 42 5.1 0.00 0.00 40.4 42.6
11/23/20 - 0000 42.3 96 41.3 0.8 NE | 44 3.8 0.00 0.01 31.4 68.6
11/22/20 - 2300 44.7 93 42.8 0.9 NNE | 25 3.1 0.00 0.01 31.4 68.6
11/22/20 - 2200 46.5 90 43.7 0.6 SSE | 147 3.1 0.00 0.01 31.4 68.6
11/22/20 - 2100 46.9 89 43.8 1.2 ENE | 59 3.8 0.00 0.01 31.4 68.6
11/22/20 - 2000 44.8 91 42.4 0.5 N | 359 3.1 0.00 0.01 31.4 68.6
11/22/20 - 1900 44.7 89 41.6 0.7 NNE | 29 3.1 0.00 0.01 31.4 68.6
11/22/20 - 1800 48.2 80 42.5 0.8 NNE | 23 3.4 0.00 0.01 31.4 68.6
11/22/20 - 1700 58.1 56 42.3 1.6 SSW | 198 6.1 0.00 0.01 31.4 68.6
11/22/20 - 1600 62.1 42 38.9 5.1 SW | 226 12.5 0.00 0.01 31.4 68.6
11/22/20 - 1500 62.8 35 34.8 4.9 SSW | 204 9.1 0.00 0.01 31.4 68.6
11/22/20 - 1400 66.8 27 31.9 7.0 SW | 223 13.5 0.00 0.01 31.4 68.6
11/22/20 - 1300 65.3 32 34.2 5.2 S | 170 10.1 0.00 0.01 31.4 67.2
11/22/20 - 1200 62.8 35 34.4 2.1 S | 185 5.8 0.00 0.01 31.4 65.3
11/22/20 - 1100 60.2 39 34.9 2.5 S | 174 5.8 0.00 0.01 31.4 61.4
11/22/20 - 1000 56.5 50 37.6 1.6 SSW | 196 4.8 0.00 0.01 31.4 59.3
11/22/20 - 0900 45.3 77 38.1 0.7 ENE | 57 3.4 0.00 0.01 31.4 51.7
11/22/20 - 0800 34.0 97 33.2 1.0 NNE | 31 3.1 0.00 0.01 31.4 40.7
11/22/20 - 0700 32.5 97 31.8 1.4 NNE | 25 3.8 0.00 0.01 31.4 40.7
11/22/20 - 0600 32.2 98 31.8 1.2 NNE | 27 3.4 0.00 0.01 31.5 40.7
11/22/20 - 0500 32.0 98 31.6 1.5 NNE | 31 3.4 0.00 0.01 31.5 40.7
11/22/20 - 0400 33.5 97 32.8 1.1 NNE | 20 3.4 0.00 0.01 32.4 40.7
11/22/20 - 0300 35.3 96 34.3 1.6 NNE | 17 5.1 0.01 0.01 34.6 40.7
11/22/20 - 0200 36.7 94 35.2 1.3 NE | 45 3.4 0.00 0.00 35.6 40.7
11/22/20 - 0100 39.2 90 36.4 1.2 NE | 50 3.4 0.00 0.00 37.5 40.7
11/22/20 - 0000 39.6 92 37.4 1.5 NE | 48 3.8 0.00 0.03 28.7 66.1
11/21/20 - 2300 39.5 94 37.9 1.2 NE | 35 4.4 0.00 0.03 28.7 66.1
11/21/20 - 2200 39.7 93 37.9 1.1 NE | 37 3.4 0.00 0.03 28.7 66.1
11/21/20 - 2100 40.5 92 38.4 1.2 NE | 48 3.1 0.00 0.03 28.7 66.1
11/21/20 - 2000 42.2 89 39.2 1.4 NE | 50 3.4 0.00 0.03 28.7 66.1
11/21/20 - 1900 43.6 87 40.0 1.0 NE | 43 2.7 0.00 0.03 28.7 66.1
11/21/20 - 1800 47.1 78 40.6 0.7 NE | 37 2.4 0.00 0.03 28.7 66.1
11/21/20 - 1700 58.2 46 37.5 0.7 SSW | 198 3.1 0.00 0.03 28.7 66.1
11/21/20 - 1600 64.8 32 34.2 3.1 S | 172 6.8 0.00 0.03 28.7 66.1
11/21/20 - 1500 63.9 33 34.6 3.5 S | 176 6.8 0.00 0.03 28.7 65.7
11/21/20 - 1400 63.3 37 36.3 4.4 S | 185 8.4 0.01 0.03 28.7 65.7
11/21/20 - 1300 64.3 33 34.7 3.0 SSW | 192 6.1 0.00 0.02 28.7 65.7
11/21/20 - 1200 61.2 39 36.2 3.6 SSW | 194 6.4 0.00 0.02 28.7 63.5
11/21/20 - 1100 56.6 48 36.9 3.3 SSE | 167 6.8 0.01 0.02 28.7 58.6
11/21/20 - 1000 53.4 57 38.6 1.6 S | 171 5.1 0.00 0.01 28.7 56.4
11/21/20 - 0900 43.5 87 39.7 0.5 ESE | 121 2.1 0.01 0.01 28.7 50.1
11/21/20 - 0800 31.2 99 31.0 0.8 NE | 35 2.7 0.00 0.00 28.7 36.4
11/21/20 - 0700 29.4 98 29.0 0.8 NNE | 29 3.1 0.00 0.00 28.7 34.8
11/21/20 - 0600 30.2 98 29.8 1.0 NE | 36 3.8 0.00 0.00 29.6 34.8
11/21/20 - 0500 30.4 98 30.0 1.0 N | 11 3.8 0.00 0.00 29.9 34.8
11/21/20 - 0400 31.4 98 30.8 0.9 NNE | 31 4.4 0.00 0.00 30.4 34.8
11/21/20 - 0300 32.5 98 32.0 1.1 NNE | 16 4.8 0.00 0.00 32.1 34.8
11/21/20 - 0200 33.0 97 32.2 0.6 NNE | 22 3.4 0.00 0.00 32.2 34.8
11/21/20 - 0100 34.4 97 33.6 1.6 NE | 39 4.1 0.00 0.00 33.8 34.8
11/21/20 - 0000 35.6 96 34.6 1.5 NE | 36 3.8 0.00 0.02 31.9 69.2
11/20/20 - 2300 37.2 95 35.9 1.5 NNE | 30 6.8 0.00 0.02 31.9 69.2
11/20/20 - 2200 37.8 95 36.5 1.6 NNE | 28 4.4 0.00 0.02 31.9 69.2
11/20/20 - 2100 39.2 94 37.6 1.7 NE | 41 4.8 0.01 0.02 31.9 69.2
11/20/20 - 2000 40.7 94 39.2 1.1 NE | 45 3.8 0.00 0.01 31.9 69.2
11/20/20 - 1900 43.1 91 40.7 0.7 NE | 46 3.1 0.00 0.01 31.9 69.2
11/20/20 - 1800 48.0 80 42.2 0.5 N | 359 2.1 0.00 0.01 31.9 69.2
11/20/20 - 1700 61.0 48 40.8 1.4 S | 178 4.4 0.00 0.01 31.9 69.2
11/20/20 - 1600 67.3 31 35.8 3.5 SSW | 197 6.4 0.00 0.01 31.9 69.2
11/20/20 - 1500 68.5 27 33.5 3.4 S | 183 6.8 0.00 0.01 31.9 69.2
11/20/20 - 1400 67.6 27 32.4 2.1 SSE | 161 6.4 0.00 0.01 31.9 68.7
11/20/20 - 1300 66.3 30 33.7 2.1 S | 191 6.1 0.00 0.01 31.9 67.8
Max 69.1 100 45.6 14.4 - 27.6 0.01 0.03 57.7 69.9
Avg 49.5 66 35.2 3.3 - 8.0 0.00 - - -
Min 29.4 15 15.4 0.4 - 0.4 0.00 0.00 28.7 34.8
Total - - - - - - 0.08 - - -
Tip: Bookmark this page for easy future reference